Time;durP1;ratioP1;P1;durP2;ratioP2;P2;SDS_P1;SDS_P2;PMS_P1;PMS_P2;Temp;Humidity;BMP_temperature;BMP_pressure;BME280_temperature;BME280_humidity;BME280_pressure;Samples;Min_cycle;Max_cycle;Signal;HPM_P1;HPM_P2
2023/11/04 00:00:42;;;;;;;0.30;0.00;;;;;;;6.60;100.00;98697.63;5092998;28;20024;-69
2023/11/04 00:03:07;;;;;;;0.73;0.05;;;;;;;6.59;100.00;98707.16;5093809;28;20060;-70
2023/11/04 00:05:32;;;;;;;0.40;0.10;;;;;;;6.60;100.00;98707.97;5095174;28;20046;-70
2023/11/04 00:07:58;;;;;;;0.10;0.00;;;;;;;6.57;100.00;98698.75;5091510;28;20119;-69
2023/11/04 00:10:24;;;;;;;0.20;0.00;;;;;;;6.57;100.00;98708.28;5092689;28;20024;-70
2023/11/04 00:12:49;;;;;;;0.68;0.10;;;;;;;6.59;100.00;98708.94;5088971;28;20027;-69
2023/11/04 00:15:15;;;;;;;1.65;0.00;;;;;;;6.64;100.00;98701.47;5088914;28;20373;-69
2023/11/04 00:17:41;;;;;;;0.40;0.00;;;;;;;6.67;100.00;98701.16;5090293;28;20077;-70
2023/11/04 00:20:07;;;;;;;1.15;0.05;;;;;;;6.71;100.00;98702.44;5090307;28;20048;-69
2023/11/04 00:22:34;;;;;;;0.10;0.00;;;;;;;6.75;100.00;98703.72;5087392;28;20423;-69
2023/11/04 00:24:59;;;;;;;0.10;0.00;;;;;;;6.72;100.00;98703.25;5091851;28;20032;-69
2023/11/04 00:27:25;;;;;;;0.10;0.00;;;;;;;6.74;100.00;98696.94;5089037;28;20035;-69
2023/11/04 00:29:51;;;;;;;0.10;0.00;;;;;;;6.74;100.00;98699.53;5087254;28;20082;-69
2023/11/04 00:32:16;;;;;;;0.10;0.00;;;;;;;6.75;100.00;98695.16;5085720;28;20026;-69
2023/11/04 00:34:42;;;;;;;0.70;0.00;;;;;;;6.66;100.00;98699.53;5088459;28;20418;-70
2023/11/04 00:37:09;;;;;;;0.30;0.00;;;;;;;6.72;100.00;98704.06;5087540;28;20038;-69
2023/11/04 00:39:36;;;;;;;1.23;0.05;;;;;;;6.67;100.00;98708.91;5087226;28;20036;-69
2023/11/04 00:42:02;;;;;;;0.00;0.00;;;;;;;6.64;100.00;98701.47;5096406;28;20505;-69
2023/11/04 00:44:27;;;;;;;0.20;0.00;;;;;;;6.63;100.00;98703.25;5087992;28;20028;-69
2023/11/04 00:46:53;;;;;;;2.17;0.10;;;;;;;6.67;100.00;98703.72;5088765;28;20118;-70
2023/11/04 00:49:18;;;;;;;0.10;0.00;;;;;;;6.73;100.00;98699.69;5096183;28;20108;-69
2023/11/04 00:51:43;;;;;;;0.10;0.10;;;;;;;6.69;100.00;98703.56;5085633;28;20043;-69
2023/11/04 00:54:10;;;;;;;0.20;0.00;;;;;;;6.64;100.00;98704.88;5085871;28;20039;-69
2023/11/04 00:56:35;;;;;;;0.47;0.00;;;;;;;6.67;100.00;98706.31;5087126;28;20032;-69
2023/11/04 00:59:01;;;;;;;0.10;0.00;;;;;;;6.61;100.00;98715.56;5087425;28;20042;-69
2023/11/04 01:01:26;;;;;;;1.90;0.00;;;;;;;6.60;100.00;98708.78;5089826;28;20036;-69
2023/11/04 01:03:51;;;;;;;0.38;0.00;;;;;;;6.63;100.00;98707.63;5087948;28;20086;-69
2023/11/04 01:06:17;;;;;;;0.00;0.00;;;;;;;6.63;100.00;98713.59;5088188;28;20046;-69
2023/11/04 01:08:42;;;;;;;0.88;0.00;;;;;;;6.62;100.00;98718.94;5096710;28;20110;-70
2023/11/04 01:11:08;;;;;;;0.57;0.00;;;;;;;6.66;100.00;98709.88;5097333;28;20040;-70
2023/11/04 01:13:34;;;;;;;2.47;0.10;;;;;;;6.69;100.00;98709.56;5092733;28;20039;-69
2023/11/04 01:16:00;;;;;;;0.35;0.00;;;;;;;6.67;100.00;98714.09;5098150;28;20127;-69
2023/11/04 01:18:25;;;;;;;0.77;0.00;;;;;;;6.72;100.00;98721.38;5099098;28;20028;-70
2023/11/04 01:20:51;;;;;;;2.78;0.05;;;;;;;6.71;100.00;98722.34;5096036;28;20539;-70
2023/11/04 01:23:16;;;;;;;0.10;0.00;;;;;;;6.67;100.00;98727.03;5093440;28;20127;-69
2023/11/04 01:25:42;;;;;;;0.55;0.00;;;;;;;6.69;100.00;98727.69;5097530;28;20044;-69
2023/11/04 01:28:07;;;;;;;2.40;0.20;;;;;;;6.73;100.00;98730.75;5092118;28;20036;-69
2023/11/04 01:30:33;;;;;;;0.30;0.00;;;;;;;6.77;100.00;98735.44;5094608;28;20024;-69
2023/11/04 01:32:58;;;;;;;0.17;0.00;;;;;;;6.90;100.00;98727.19;5095631;28;20375;-69
2023/11/04 01:35:24;;;;;;;0.10;0.00;;;;;;;6.86;100.00;98744.03;5097539;28;20385;-69
2023/11/04 01:37:49;;;;;;;0.52;0.00;;;;;;;6.81;100.00;98743.69;5093218;28;20042;-69
2023/11/04 01:40:14;;;;;;;0.20;0.00;;;;;;;6.75;100.00;98747.75;5096391;28;20500;-69
2023/11/04 01:42:43;;;;;;;0.85;0.00;;;;;;;6.69;100.00;98756.13;5093262;28;20572;-69
2023/11/04 01:45:09;;;;;;;2.45;0.10;;;;;;;6.65;100.00;98750.47;5093184;28;20028;-69
2023/11/04 01:47:36;;;;;;;0.10;0.00;;;;;;;6.64;100.00;98748.06;5092005;28;20043;-70
2023/11/04 01:50:02;;;;;;;2.25;0.00;;;;;;;6.67;100.00;98745.13;5090630;28;20043;-69
2023/11/04 01:52:29;;;;;;;0.10;0.00;;;;;;;6.72;100.00;98755.81;5098001;28;20359;-69
2023/11/04 01:54:55;;;;;;;0.08;0.00;;;;;;;6.72;100.00;98747.25;5090901;28;20376;-70
2023/11/04 01:57:20;;;;;;;0.15;0.00;;;;;;;6.67;100.00;98752.91;5092910;28;20111;-69
2023/11/04 01:59:46;;;;;;;0.82;0.00;;;;;;;6.68;100.00;98749.34;5094285;28;20077;-69
2023/11/04 02:02:12;;;;;;;0.10;0.00;;;;;;;6.70;100.00;98738.84;5100224;28;20490;-70
2023/11/04 02:04:37;;;;;;;0.88;0.85;;;;;;;6.74;100.00;98743.53;5093568;28;20132;-69
2023/11/04 02:07:03;;;;;;;0.75;0.00;;;;;;;6.72;100.00;98745.47;5100587;28;20119;-69
2023/11/04 02:09:29;;;;;;;0.17;0.00;;;;;;;6.73;100.00;98751.44;5094515;28;20032;-69
2023/11/04 02:11:55;;;;;;;0.43;0.00;;;;;;;6.79;100.00;98751.63;5091144;28;20361;-69
2023/11/04 02:14:21;;;;;;;0.80;0.00;;;;;;;6.82;100.00;98751.31;5100572;28;20062;-69
2023/11/04 02:16:48;;;;;;;0.17;0.00;;;;;;;6.82;100.00;98758.25;5097280;28;20027;-69
2023/11/04 02:19:13;;;;;;;0.20;0.03;;;;;;;6.86;100.00;98762.94;5094748;28;20074;-69
2023/11/04 02:21:39;;;;;;;0.00;0.00;;;;;;;6.90;100.00;98759.06;5092275;28;20165;-70
2023/11/04 02:24:05;;;;;;;0.25;0.00;;;;;;;6.96;100.00;98766.19;5096788;28;20032;-69
2023/11/04 02:26:30;;;;;;;0.13;0.00;;;;;;;6.96;100.00;98770.56;5090792;28;20032;-69
2023/11/04 02:28:57;;;;;;;0.10;0.00;;;;;;;6.94;100.00;98762.94;5094449;28;20032;-69
2023/11/04 02:31:22;;;;;;;0.25;0.00;;;;;;;6.93;100.00;98774.28;5093778;28;20046;-69
2023/11/04 02:33:48;;;;;;;0.00;0.00;;;;;;;6.98;100.00;98782.38;5098387;28;20028;-69
2023/11/04 02:36:13;;;;;;;0.55;0.00;;;;;;;7.03;100.00;98784.47;5097539;28;20035;-69
2023/11/04 02:38:39;;;;;;;0.25;0.00;;;;;;;6.95;100.00;98781.88;5097376;28;20055;-69
2023/11/04 02:41:04;;;;;;;0.00;0.00;;;;;;;6.89;100.00;98785.13;5092767;28;20043;-69
2023/11/04 02:43:30;;;;;;;0.00;0.00;;;;;;;6.87;100.00;98785.28;5099726;28;20039;-69
2023/11/04 02:45:55;;;;;;;0.30;0.00;;;;;;;6.87;100.00;98787.88;5088024;28;20085;-69
2023/11/04 02:48:21;;;;;;;1.65;0.00;;;;;;;6.86;100.00;98798.38;5097760;28;20460;-69
2023/11/04 02:50:46;;;;;;;0.10;0.00;;;;;;;6.84;100.00;98795.94;5093852;28;20036;-68
2023/11/04 02:53:12;;;;;;;0.10;0.00;;;;;;;6.81;100.00;98790.28;5092776;28;20028;-68
2023/11/04 02:55:38;;;;;;;0.00;0.00;;;;;;;6.82;100.00;98797.91;5097238;28;20028;-69
2023/11/04 02:58:03;;;;;;;0.00;0.00;;;;;;;6.83;100.00;98791.75;5090839;28;20031;-69
2023/11/04 03:00:28;;;;;;;0.88;0.00;;;;;;;6.84;100.00;98792.56;5097057;28;20035;-69
2023/11/04 03:02:54;;;;;;;0.30;0.00;;;;;;;6.85;100.00;98792.41;5088827;28;20492;-69
2023/11/04 03:05:19;;;;;;;0.40;0.00;;;;;;;6.88;100.00;98796.44;5099744;28;20035;-68
2023/11/04 03:07:45;;;;;;;0.50;0.00;;;;;;;6.91;100.00;98790.94;5089472;28;20490;-69
2023/11/04 03:10:10;;;;;;;0.88;0.00;;;;;;;7.02;100.00;98807.94;5091476;28;20035;-69
2023/11/04 03:12:36;;;;;;;0.30;0.00;;;;;;;7.06;100.00;98804.06;5094623;27;20049;-68
2023/11/04 03:15:02;;;;;;;0.10;0.00;;;;;;;7.17;100.00;98808.88;5088979;28;20031;-69
2023/11/04 03:17:27;;;;;;;1.55;0.20;;;;;;;7.15;100.00;98806.47;5087626;28;20036;-69
2023/11/04 03:19:53;;;;;;;0.10;0.00;;;;;;;7.19;100.00;98810.34;5089282;28;20114;-68
2023/11/04 03:22:18;;;;;;;0.00;0.00;;;;;;;7.12;100.00;98798.19;5083191;28;20036;-69
2023/11/04 03:24:45;;;;;;;0.20;0.00;;;;;;;7.13;100.00;98802.41;5085215;28;20028;-69
2023/11/04 03:27:12;;;;;;;0.10;0.00;;;;;;;7.19;100.00;98799.19;5088342;28;20028;-69
2023/11/04 03:29:38;;;;;;;0.10;0.10;;;;;;;7.26;100.00;98795.78;5087299;28;20479;-69
2023/11/04 03:32:03;;;;;;;0.10;0.00;;;;;;;7.37;100.00;98793.81;5089054;28;20065;-69
2023/11/04 03:34:29;;;;;;;0.95;0.00;;;;;;;7.44;100.00;98799.97;5086802;28;20035;-68
2023/11/04 03:36:54;;;;;;;0.10;0.00;;;;;;;7.45;100.00;98794.63;5089347;28;20035;-69
2023/11/04 03:39:20;;;;;;;0.65;0.00;;;;;;;7.45;100.00;98799.00;5089958;28;20059;-69
2023/11/04 03:41:46;;;;;;;0.20;0.00;;;;;;;7.41;100.00;98802.88;5090085;28;20028;-68
2023/11/04 03:44:12;;;;;;;0.10;0.00;;;;;;;7.41;100.00;98798.50;5090562;28;20474;-68
2023/11/04 03:46:37;;;;;;;2.17;0.00;;;;;;;7.44;100.00;98800.78;5086977;28;21204;-68
2023/11/04 03:49:04;;;;;;;0.00;0.00;;;;;;;7.49;100.00;98800.28;5096069;28;20027;-69
2023/11/04 03:51:30;;;;;;;2.28;0.00;;;;;;;7.60;100.00;98808.50;5080674;28;20063;-69
2023/11/04 03:53:56;;;;;;;0.00;0.00;;;;;;;7.70;100.00;98805.72;5088301;28;20491;-68
2023/11/04 03:56:21;;;;;;;0.93;0.00;;;;;;;7.77;100.00;98811.88;5090387;28;20149;-69
2023/11/04 03:58:46;;;;;;;1.08;0.00;;;;;;;7.75;100.00;98811.22;5086293;28;20050;-68
2023/11/04 04:01:12;;;;;;;0.17;0.00;;;;;;;7.80;100.00;98805.53;5091321;28;20355;-68
2023/11/04 04:03:38;;;;;;;0.10;0.00;;;;;;;7.74;100.00;98808.78;5091119;28;20100;-68
2023/11/04 04:06:04;;;;;;;0.10;0.00;;;;;;;7.77;100.00;98813.66;5095253;28;21187;-69
2023/11/04 04:08:29;;;;;;;0.08;0.00;;;;;;;7.82;100.00;98808.78;5092016;28;20121;-69
2023/11/04 04:10:55;;;;;;;0.25;0.00;;;;;;;7.83;100.00;98818.16;5087014;28;20035;-69
2023/11/04 04:13:20;;;;;;;0.10;0.00;;;;;;;7.81;100.00;98807.97;5090178;28;20024;-69
2023/11/04 04:15:47;;;;;;;0.10;0.00;;;;;;;7.81;100.00;98817.53;5089414;28;21609;-69
2023/11/04 04:18:12;;;;;;;0.17;0.00;;;;;;;7.84;100.00;98820.59;5090683;28;20383;-68
2023/11/04 04:20:38;;;;;;;7.25;0.10;;;;;;;7.85;100.00;98818.81;5094774;28;20046;-69
2023/11/04 04:23:03;;;;;;;0.13;0.00;;;;;;;7.83;100.00;98813.78;5086029;28;20036;-69
2023/11/04 04:25:29;;;;;;;0.20;0.00;;;;;;;7.78;100.00;98816.06;5091684;28;20121;-69
2023/11/04 04:27:54;;;;;;;0.08;0.00;;;;;;;7.75;100.00;98811.22;5091716;28;20041;-68
2023/11/04 04:30:20;;;;;;;0.38;0.00;;;;;;;7.76;100.00;98806.84;5085171;28;20546;-68
2023/11/04 04:32:46;;;;;;;0.38;0.00;;;;;;;7.77;100.00;98803.28;5088690;28;20040;-68
2023/11/04 04:35:12;;;;;;;0.28;0.00;;;;;;;7.69;100.00;98806.69;5086681;28;20031;-69
2023/11/04 04:37:38;;;;;;;0.15;0.00;;;;;;;7.62;100.00;98806.56;5086274;28;20032;-69
2023/11/04 04:40:05;;;;;;;0.45;0.00;;;;;;;7.60;100.00;98803.31;5088564;28;20038;-69
2023/11/04 04:42:31;;;;;;;0.03;0.00;;;;;;;7.68;100.00;98806.88;5085074;28;20105;-69
2023/11/04 04:44:56;;;;;;;1.00;0.00;;;;;;;7.72;100.00;98810.75;5086936;28;20491;-69
2023/11/04 04:47:21;;;;;;;0.20;0.10;;;;;;;7.62;100.00;98801.38;5089352;28;20039;-69
2023/11/04 04:49:47;;;;;;;0.25;0.00;;;;;;;7.62;100.00;98800.56;5082826;28;20031;-69
2023/11/04 04:52:13;;;;;;;0.05;0.00;;;;;;;7.69;100.00;98803.28;5082387;28;20376;-69
2023/11/04 04:54:38;;;;;;;1.25;0.10;;;;;;;7.77;100.00;98803.28;5089863;28;20024;-68
2023/11/04 04:57:04;;;;;;;0.32;0.00;;;;;;;7.82;100.00;98801.81;5087239;28;20028;-69
2023/11/04 04:59:29;;;;;;;0.00;0.00;;;;;;;7.90;100.00;98798.38;5086187;28;20032;-68
2023/11/04 05:01:56;;;;;;;1.95;0.00;;;;;;;7.92;100.00;98799.03;5087802;28;20040;-69
2023/11/04 05:04:22;;;;;;;0.10;0.00;;;;;;;7.90;100.00;98799.19;5090932;28;20032;-69
2023/11/04 05:06:47;;;;;;;0.00;0.00;;;;;;;7.89;100.00;98800.16;5086840;28;20032;-68
2023/11/04 05:09:13;;;;;;;0.00;0.00;;;;;;;7.90;100.00;98809.56;5088922;28;20531;-68
2023/11/04 05:11:38;;;;;;;0.43;0.00;;;;;;;7.88;100.00;98810.69;5095911;28;20023;-68
2023/11/04 05:14:04;;;;;;;0.05;0.00;;;;;;;7.85;100.00;98805.84;5089014;28;20111;-69
2023/11/04 05:16:29;;;;;;;0.30;0.00;;;;;;;7.83;100.00;98807.81;5089645;28;20032;-69
2023/11/04 05:18:55;;;;;;;0.15;0.00;;;;;;;7.81;100.00;98809.75;5093671;28;20031;-69
2023/11/04 05:21:24;;;;;;;0.22;0.00;;;;;;;7.86;100.00;98810.88;5098396;28;20044;-69
2023/11/04 05:23:50;;;;;;;0.08;0.00;;;;;;;7.84;100.00;98814.59;5095897;28;20048;-68
2023/11/04 05:26:16;;;;;;;0.08;0.00;;;;;;;7.79;100.00;98815.09;5094859;28;20496;-68
2023/11/04 05:28:41;;;;;;;0.00;0.00;;;;;;;7.74;100.00;98813.97;5085365;28;20130;-69
2023/11/04 05:31:09;;;;;;;0.10;0.00;;;;;;;7.67;100.00;98821.59;5095534;28;20024;-69
2023/11/04 05:33:35;;;;;;;0.00;0.00;;;;;;;7.78;100.00;98820.44;5091581;28;20048;-68
2023/11/04 05:36:00;;;;;;;0.00;0.00;;;;;;;7.83;100.00;98818.16;5088653;28;20118;-69
2023/11/04 05:38:27;;;;;;;2.83;0.00;;;;;;;7.80;100.00;98818.50;5090143;28;20035;-68
2023/11/04 05:40:53;;;;;;;2.83;0.55;;;;;;;7.73;100.00;98810.56;5089856;28;20519;-69
2023/11/04 05:43:19;;;;;;;1.95;0.10;;;;;;;7.60;100.00;98818.06;5094288;28;20067;-68
2023/11/04 05:45:45;;;;;;;0.40;0.00;;;;;;;7.63;100.00;98825.50;5096363;28;20059;-69
2023/11/04 05:48:10;;;;;;;0.20;0.00;;;;;;;7.72;100.00;98826.28;5091538;28;20161;-69
2023/11/04 05:50:36;;;;;;;0.00;0.00;;;;;;;7.81;100.00;98830.50;5088842;28;20032;-69
2023/11/04 05:53:02;;;;;;;0.10;0.00;;;;;;;7.78;100.00;98825.63;5087248;28;20039;-69
2023/11/04 05:55:28;;;;;;;0.20;0.00;;;;;;;7.79;100.00;98833.25;5088748;28;20062;-69
2023/11/04 05:57:54;;;;;;;0.20;0.03;;;;;;;7.89;100.00;98833.06;5094175;28;20468;-69
2023/11/04 06:00:20;;;;;;;2.83;0.10;;;;;;;7.93;100.00;98834.34;5090049;28;20054;-69
2023/11/04 06:02:45;;;;;;;1.42;0.20;;;;;;;7.92;100.00;98838.72;5094814;28;20040;-68
2023/11/04 06:05:15;;;;;;;0.93;0.10;;;;;;;7.90;100.00;98830.31;5095969;28;20024;-69
2023/11/04 06:07:40;;;;;;;0.47;0.10;;;;;;;7.90;100.00;98838.09;5096520;28;20432;-68
2023/11/04 06:10:10;;;;;;;1.48;0.10;;;;;;;7.92;100.00;98835.31;5091774;28;20123;-68
2023/11/04 06:12:35;;;;;;;0.93;0.15;;;;;;;7.93;100.00;98840.34;5091408;28;20055;-68
2023/11/04 06:15:02;;;;;;;0.30;0.10;;;;;;;7.96;100.00;98845.19;5103415;28;20100;-68
2023/11/04 06:17:27;;;;;;;0.50;0.10;;;;;;;8.04;100.00;98841.75;5092791;28;20047;-68
2023/11/04 06:19:54;;;;;;;1.38;0.10;;;;;;;8.02;100.00;98841.13;5084314;28;20066;-69
2023/11/04 06:22:19;;;;;;;1.48;0.20;;;;;;;8.03;100.00;98842.75;5088166;28;20060;-68
2023/11/04 06:24:45;;;;;;;0.40;0.10;;;;;;;8.06;100.00;98844.97;5090841;28;20127;-69
2023/11/04 06:27:11;;;;;;;0.45;0.13;;;;;;;8.06;100.00;98854.53;5092050;28;20548;-69
2023/11/04 06:29:36;;;;;;;0.47;0.08;;;;;;;8.09;100.00;98857.63;5089798;28;20482;-68
2023/11/04 06:32:02;;;;;;;0.00;0.00;;;;;;;8.07;100.00;98862.16;5092287;28;20023;-68
2023/11/04 06:34:27;;;;;;;0.20;0.00;;;;;;;8.05;100.00;98863.31;5092284;28;20055;-69
2023/11/04 06:36:53;;;;;;;0.28;0.03;;;;;;;8.06;100.00;98864.91;5095047;28;20028;-68
2023/11/04 06:39:18;;;;;;;0.13;0.03;;;;;;;8.05;100.00;98868.50;5093927;28;20548;-68
2023/11/04 06:41:44;;;;;;;0.75;0.10;;;;;;;8.06;100.00;98870.09;5099759;28;21504;-69
2023/11/04 06:44:10;;;;;;;0.10;0.00;;;;;;;8.14;100.00;98867.50;5089951;28;20119;-69
2023/11/04 06:46:35;;;;;;;0.98;0.00;;;;;;;8.22;100.00;98870.06;5094976;28;20031;-68
2023/11/04 06:49:01;;;;;;;1.30;0.10;;;;;;;8.39;100.00;98876.03;5083581;28;20027;-68
2023/11/04 06:51:27;;;;;;;0.55;0.00;;;;;;;8.52;100.00;98876.28;5099535;28;20088;-68
2023/11/04 06:53:55;;;;;;;0.65;0.00;;;;;;;8.60;100.00;98878.84;5091102;28;20024;-68
2023/11/04 06:56:24;;;;;;;0.03;0.00;;;;;;;8.71;97.56;98886.25;5091933;28;20149;-69
2023/11/04 06:58:50;;;;;;;0.00;0.00;;;;;;;8.82;98.46;98892.84;5090594;28;20082;-69
2023/11/04 07:01:16;;;;;;;0.10;0.00;;;;;;;8.89;97.79;98892.00;5093110;28;20028;-68
2023/11/04 07:03:42;;;;;;;0.68;0.00;;;;;;;9.00;99.71;98901.16;5092242;28;20399;-69
2023/11/04 07:06:14;;;;;;;2.28;0.08;;;;;;;9.08;98.82;98906.31;5094108;28;20032;-69
2023/11/04 07:08:40;;;;;;;0.10;0.00;;;;;;;9.22;95.08;98899.56;5097026;28;20036;-68
2023/11/04 07:11:06;;;;;;;0.47;0.00;;;;;;;9.33;96.70;98906.94;5102948;28;20023;-68
2023/11/04 07:13:31;;;;;;;0.17;0.00;;;;;;;9.36;97.39;98900.59;5088901;28;20103;-68
2023/11/04 07:15:59;;;;;;;0.00;0.00;;;;;;;9.36;93.23;98905.78;5094470;28;20059;-68
2023/11/04 07:18:25;;;;;;;0.13;0.00;;;;;;;9.38;93.10;98911.63;5099390;28;20367;-68
2023/11/04 07:20:50;;;;;;;0.55;0.00;;;;;;;9.43;95.21;98902.31;5091380;28;20059;-69
2023/11/04 07:23:17;;;;;;;0.20;0.08;;;;;;;9.45;96.75;98910.72;5091363;28;20357;-68
2023/11/04 07:25:44;;;;;;;0.10;0.00;;;;;;;9.47;93.44;98918.34;5090185;28;20044;-68
2023/11/04 07:28:10;;;;;;;1.10;0.00;;;;;;;9.53;98.06;98917.66;5090847;28;20064;-68
2023/11/04 07:30:36;;;;;;;0.77;0.00;;;;;;;9.47;98.64;98908.75;5088386;28;20035;-68
2023/11/04 07:33:01;;;;;;;0.10;0.00;;;;;;;9.49;98.59;98917.19;5087206;28;20028;-68
2023/11/04 07:35:27;;;;;;;0.55;0.00;;;;;;;9.52;98.74;98911.66;5089726;28;20028;-68
2023/11/04 07:37:53;;;;;;;0.22;0.00;;;;;;;9.52;100.00;98914.25;5091431;28;20399;-67
2023/11/04 07:40:18;;;;;;;0.10;0.00;;;;;;;9.52;100.00;98906.44;5091660;28;20040;-68
2023/11/04 07:42:44;;;;;;;0.38;0.00;;;;;;;9.54;100.00;98909.69;5089835;28;20131;-68
2023/11/04 07:45:14;;;;;;;1.60;0.60;;;;;;;9.58;100.00;98910.94;5090761;28;20458;-68
2023/11/04 07:47:40;;;;;;;0.30;0.00;;;;;;;9.63;100.00;98913.84;5091163;28;20042;-68
2023/11/04 07:50:07;;;;;;;0.65;0.00;;;;;;;9.68;100.00;98921.13;5090935;28;20397;-68
2023/11/04 07:52:33;;;;;;;0.20;0.00;;;;;;;9.71;96.21;98923.38;5087234;28;20055;-68
2023/11/04 07:54:58;;;;;;;0.35;0.00;;;;;;;9.77;97.39;98925.25;5092348;28;20056;-68
2023/11/04 07:57:23;;;;;;;0.20;0.00;;;;;;;9.82;98.57;98924.72;5093292;28;20050;-69
2023/11/04 07:59:49;;;;;;;0.05;0.00;;;;;;;9.80;97.84;98929.31;5093733;28;20139;-68
2023/11/04 08:02:14;;;;;;;0.90;0.00;;;;;;;9.75;97.45;98929.84;5092175;28;20164;-68
2023/11/04 08:04:40;;;;;;;0.10;0.00;;;;;;;9.76;99.63;98928.03;5087912;28;20036;-68
2023/11/04 08:07:06;;;;;;;0.70;0.00;;;;;;;9.78;100.00;98926.06;5090855;28;20040;-68
2023/11/04 08:09:32;;;;;;;0.38;0.00;;;;;;;9.83;100.00;98934.16;5088972;28;20020;-68
2023/11/04 08:11:57;;;;;;;0.52;0.00;;;;;;;9.85;97.55;98932.19;5090372;28;20024;-68
2023/11/04 08:14:22;;;;;;;0.40;0.00;;;;;;;9.92;98.84;98938.31;5096191;28;20059;-68
2023/11/04 08:16:48;;;;;;;0.57;0.00;;;;;;;9.92;98.70;98939.06;5091666;28;20475;-68
2023/11/04 08:19:13;;;;;;;1.45;0.00;;;;;;;9.97;98.80;98941.16;5095159;28;20037;-68
2023/11/04 08:21:39;;;;;;;0.43;0.00;;;;;;;10.05;94.94;98945.47;5094189;28;20048;-68
2023/11/04 08:24:04;;;;;;;2.72;0.10;;;;;;;10.07;94.43;98941.72;5104888;28;20042;-68
2023/11/04 08:26:30;;;;;;;0.35;0.00;;;;;;;10.12;95.46;98944.59;5098777;28;20383;-68
2023/11/04 08:28:55;;;;;;;0.85;0.10;;;;;;;10.16;96.78;98940.66;5095227;28;20046;-68
2023/11/04 08:31:21;;;;;;;0.52;0.10;;;;;;;10.23;96.15;98938.16;5088064;28;20036;-71
2023/11/04 08:33:50;;;;;;;1.75;0.03;;;;;;;10.32;90.29;98938.91;5085206;28;20126;-71
2023/11/04 08:36:16;;;;;;;1.42;0.00;;;;;;;10.48;94.17;98941.28;5088189;28;20111;-71
2023/11/04 08:38:41;;;;;;;0.20;0.00;;;;;;;10.53;90.33;98941.56;5089378;28;20575;-71
2023/11/04 08:41:07;;;;;;;0.30;0.20;;;;;;;10.54;92.67;98945.78;5093398;28;20023;-70
2023/11/04 08:43:32;;;;;;;0.10;0.00;;;;;;;10.63;95.01;98949.91;5089643;28;20364;-70
2023/11/04 08:45:58;;;;;;;0.63;0.00;;;;;;;10.68;98.09;98958.00;5094201;28;20032;-70
2023/11/04 08:48:23;;;;;;;0.35;0.00;;;;;;;10.69;94.50;98956.19;5087561;28;20054;-70
2023/11/04 08:50:49;;;;;;;0.15;0.00;;;;;;;10.71;91.79;98955.03;5089870;28;20383;-70
2023/11/04 08:53:14;;;;;;;0.10;0.00;;;;;;;10.76;95.08;98947.47;5094863;28;20024;-70
2023/11/04 08:55:40;;;;;;;0.20;0.00;;;;;;;10.82;94.66;98953.75;5094131;28;20559;-74
2023/11/04 08:58:05;;;;;;;0.20;0.00;;;;;;;10.87;94.16;98946.97;5088672;28;20123;-71
2023/11/04 09:00:30;;;;;;;0.20;0.00;;;;;;;10.93;95.98;98943.63;5087553;28;20050;-71
2023/11/04 09:02:56;;;;;;;1.52;0.55;;;;;;;10.93;92.73;98932.41;5091452;28;20032;-71
2023/11/04 09:05:22;;;;;;;0.10;0.00;;;;;;;10.96;95.22;98937.25;5090143;28;20502;-71
2023/11/04 09:07:47;;;;;;;0.13;0.00;;;;;;;11.01;93.44;98939.31;5090651;28;20029;-71
2023/11/04 09:10:13;;;;;;;0.52;0.10;;;;;;;11.04;95.42;98928.53;5091065;28;20039;-71
2023/11/04 09:12:39;;;;;;;0.30;0.00;;;;;;;11.03;93.19;98938.13;5086482;28;20060;-66
2023/11/04 09:15:05;;;;;;;0.40;0.00;;;;;;;11.08;96.01;98934.97;5097976;28;20023;-70
2023/11/04 09:17:31;;;;;;;0.30;0.10;;;;;;;11.11;96.50;98939.81;5091280;28;20071;-70
2023/11/04 09:19:57;;;;;;;0.45;0.10;;;;;;;11.13;95.69;98946.47;5095694;28;20139;-71
2023/11/04 09:22:22;;;;;;;0.50;0.00;;;;;;;11.13;95.59;98937.84;5102341;28;20109;-70
2023/11/04 09:24:48;;;;;;;0.22;0.00;;;;;;;11.18;97.51;98945.91;5092913;28;20491;-70
2023/11/04 09:27:13;;;;;;;0.75;0.00;;;;;;;11.21;94.02;98946.34;5100088;28;20045;-70
2023/11/04 09:29:38;;;;;;;0.60;0.00;;;;;;;11.28;94.66;98949.84;5088049;28;20081;-76
2023/11/04 09:32:04;;;;;;;0.20;0.00;;;;;;;11.35;96.89;98957.72;5088499;28;20039;-71
2023/11/04 09:34:30;;;;;;;0.90;0.00;;;;;;;11.41;98.86;98961.38;5091715;28;20036;-71
2023/11/04 09:36:55;;;;;;;0.22;0.00;;;;;;;11.41;95.65;98956.97;5092231;28;20487;-70
2023/11/04 09:39:20;;;;;;;0.35;0.00;;;;;;;11.53;97.06;98947.66;5092746;28;20036;-70
2023/11/04 09:41:51;;;;;;;0.20;0.00;;;;;;;11.61;95.70;98947.53;5091983;28;20054;-70
2023/11/04 09:44:16;;;;;;;0.50;0.10;;;;;;;11.65;93.83;98942.75;5091877;28;20182;-70
2023/11/04 09:46:42;;;;;;;0.75;0.10;;;;;;;11.70;92.18;98945.59;5093350;28;20122;-70
2023/11/04 09:49:08;;;;;;;0.20;0.00;;;;;;;11.78;87.95;98948.09;5093928;28;20055;-71
2023/11/04 09:51:33;;;;;;;0.47;0.05;;;;;;;11.75;91.47;98947.66;5090261;28;20049;-69
2023/11/04 09:54:00;;;;;;;1.65;0.00;;;;;;;11.73;91.51;98939.19;5096150;28;20017;-70
2023/11/04 09:56:26;;;;;;;0.20;0.00;;;;;;;11.80;88.66;98940.09;5094208;28;20139;-70
2023/11/04 09:58:52;;;;;;;0.55;0.03;;;;;;;11.87;85.19;98941.72;5096076;28;20111;-70
2023/11/04 10:01:18;;;;;;;0.20;0.00;;;;;;;11.92;86.51;98934.13;5094213;28;20111;-69
2023/11/04 10:03:47;;;;;;;0.55;0.10;;;;;;;11.97;92.68;98930.97;5093381;28;20020;-69
2023/11/04 10:06:16;;;;;;;0.10;0.00;;;;;;;11.95;93.05;98940.78;5094148;28;20035;-68
2023/11/04 10:08:46;;;;;;;2.17;0.03;;;;;;;12.04;92.31;98934.44;5093393;28;20028;-69
2023/11/04 10:11:11;;;;;;;0.60;0.10;;;;;;;12.04;94.11;98929.22;5090497;28;20376;-69
2023/11/04 10:13:37;;;;;;;0.32;0.00;;;;;;;12.27;92.73;98918.50;5093485;28;20111;-69
2023/11/04 10:16:03;;;;;;;0.40;0.00;;;;;;;12.29;91.09;98912.06;5096433;28;20564;-69
2023/11/04 10:18:30;;;;;;;0.45;0.00;;;;;;;12.38;92.03;98917.13;5094267;28;20441;-69
2023/11/04 10:20:56;;;;;;;0.40;0.00;;;;;;;12.42;87.81;98921.78;5097883;28;20058;-69
2023/11/04 10:23:21;;;;;;;0.08;0.00;;;;;;;12.60;93.01;98921.28;5093741;28;20044;-68
2023/11/04 10:25:46;;;;;;;0.25;0.00;;;;;;;12.70;94.16;98928.75;5096958;28;20046;-71
2023/11/04 10:28:12;;;;;;;0.22;0.10;;;;;;;12.77;94.58;98925.13;5094193;28;20155;-68
2023/11/04 10:30:38;;;;;;;1.95;0.10;;;;;;;12.89;92.60;98920.97;5093236;28;20035;-67
2023/11/04 10:33:07;;;;;;;0.77;0.00;;;;;;;12.99;86.96;98911.94;5098370;28;20032;-75
2023/11/04 10:35:34;;;;;;;0.30;0.03;;;;;;;12.95;87.83;98914.13;5091474;28;20036;-71
2023/11/04 10:38:07;;;;;;;0.57;0.10;;;;;;;12.98;89.39;98918.16;5092774;28;20089;-69
2023/11/04 10:40:33;;;;;;;0.00;0.00;;;;;;;12.95;94.70;98912.34;5093009;28;20085;-70
2023/11/04 10:43:08;;;;;;;1.40;0.00;;;;;;;12.90;96.18;98906.09;5092676;28;20038;-67
2023/11/04 10:45:55;;;;;;;0.45;0.00;;;;;;;12.79;96.89;98898.81;5098909;28;20732;-68
2023/11/04 10:48:39;;;;;;;;;;;;;;;12.65;89.54;98907.63;5093275;28;20044;-67
2023/11/04 10:51:15;;;;;;;0.32;0.03;;;;;;;12.71;96.67;98896.41;5090639;28;19911;-66
2023/11/04 10:53:52;;;;;;;0.20;0.00;;;;;;;12.66;97.15;98899.59;5095047;28;20463;-65
2023/11/04 10:56:24;;;;;;;0.38;0.00;;;;;;;12.59;96.30;98899.56;5096489;28;20181;-66
2023/11/04 10:58:55;;;;;;;0.63;0.08;;;;;;;12.53;99.74;98902.13;5088188;28;20493;-66
2023/11/04 11:01:23;;;;;;;1.08;0.03;;;;;;;12.54;100.00;98895.91;5095227;28;20032;-67
2023/11/04 11:03:51;;;;;;;1.08;0.03;;;;;;;12.59;100.00;98903.97;5093773;28;20028;-67
2023/11/04 11:06:18;;;;;;;1.38;0.03;;;;;;;12.70;100.00;98908.66;5094393;28;20494;-67
2023/11/04 11:08:46;;;;;;;1.33;0.00;;;;;;;12.86;100.00;98903.06;5090727;28;20394;-67
2023/11/04 11:11:21;;;;;;;0.43;0.00;;;;;;;12.99;100.00;98911.94;5095212;28;20024;-67
2023/11/04 11:13:50;;;;;;;0.35;0.00;;;;;;;13.08;98.21;98897.69;5094847;28;20028;-67
2023/11/04 11:16:16;;;;;;;0.70;0.10;;;;;;;13.10;99.42;98901.72;5094822;28;20078;-67
2023/11/04 11:18:41;;;;;;;0.80;0.05;;;;;;;13.00;100.00;98905.72;5095980;28;20030;-67
2023/11/04 11:21:10;;;;;;;0.85;0.10;;;;;;;12.84;100.00;98899.81;5095674;28;20044;-67
2023/11/04 11:23:37;;;;;;;0.15;0.00;;;;;;;12.73;100.00;98892.59;5097034;28;20054;-67
2023/11/04 11:26:03;;;;;;;3.67;0.10;;;;;;;12.63;100.00;98898.16;5096525;28;20084;-67
2023/11/04 11:28:36;;;;;;;0.80;0.10;;;;;;;12.54;100.00;98898.53;5096156;28;20047;-66